PWSweather.com
Personal Weather Stations
Station Observations

EsineIT

Lat: 45.92528, Lon: 10.24722

Elevation: 886

Station Type: Davis VantagePro2 wireless

https://meteoesine.it

Latest ConditionsUpdated 4:56:11 AM GMT+01:01 Wednesday, Aug 21, 2019
Currently Today's Max Today's Min Today's Average
Temperature 68.7°F20.4°C 69.3°F20.7°C 67.5°F19.7°C 68.2°F20.1°C
Dew Point 63.3°F17.4°C 64.0°F17.8°C 63.1°F17.3°C 63.5°F17.5°C
Winds 2.0 mph NE3.2 kmh NE 4.9 mph -7.9 kmh - - 2.8 mph 4.5 kmh
Wind Gusts 4.9 mph7.9 kmh 10.1 mph16.3 kmh - -
Humidity 83% 88% 82% 85%
Pressure 30.03 in1016.9 mb 30.03 in1016.9 mb 30.01 in1016.3 mb -
Precipitation - 0.01 in0.3 mm - -
Hour Temp Dew Point Humidity Winds Wind Gusts Pressure Precip Precip Rate Daily Precip Total
04:56 AM 68.7°F20.4°C 63.3°F17.4°C 83% 2.0 mph NE3.2 kmh NE 4.9 mph7.9 kmh 30.03 in1016.9 mb 0.00 in0.0 mm 0.00 in0.0 mm 0.01 in0.3 mm
04:46 AM 69.3°F20.7°C 63.5°F17.5°C 82% 2.9 mph N4.7 kmh N 6.0 mph9.7 kmh 30.02 in1016.6 mb 0.00 in0.0 mm 0.00 in0.0 mm 0.01 in0.3 mm
04:36 AM 68.7°F20.4°C 63.3°F17.4°C 83% 2.0 mph NE3.2 kmh NE 6.0 mph9.7 kmh 30.02 in1016.6 mb 0.00 in0.0 mm 0.00 in0.0 mm 0.01 in0.3 mm
04:26 AM 68.7°F20.4°C 63.3°F17.4°C 83% 2.9 mph N4.7 kmh N 6.9 mph11.1 kmh 30.01 in1016.3 mb 0.00 in0.0 mm 0.00 in0.0 mm 0.01 in0.3 mm
04:16 AM 68.9°F20.5°C 63.5°F17.5°C 83% 2.0 mph N3.2 kmh N 4.9 mph7.9 kmh 30.02 in1016.6 mb 0.00 in0.0 mm 0.00 in0.0 mm 0.01 in0.3 mm
04:06 AM 68.4°F20.2°C 63.3°F17.4°C 84% 2.9 mph NE4.7 kmh NE 4.9 mph7.9 kmh 30.02 in1016.6 mb 0.00 in0.0 mm 0.00 in0.0 mm 0.01 in0.3 mm
03:56 AM 68.0°F20.0°C 63.7°F17.6°C 86% 2.0 mph N3.2 kmh N 7.0 mph11.3 kmh 30.02 in1016.6 mb 0.00 in0.0 mm 0.00 in0.0 mm 0.01 in0.3 mm
03:46 AM 68.2°F20.1°C 63.9°F17.7°C 86% 0.9 mph N1.4 kmh N 4.0 mph6.4 kmh 30.02 in1016.6 mb 0.00 in0.0 mm 0.00 in0.0 mm 0.01 in0.3 mm
03:36 AM 68.2°F20.1°C 63.1°F17.3°C 84% 0.9 mph NE1.4 kmh NE 4.0 mph6.4 kmh 30.02 in1016.6 mb 0.00 in0.0 mm 0.00 in0.0 mm 0.01 in0.3 mm
03:26 AM 68.0°F20.0°C 63.7°F17.6°C 86% 0.9 mph ENE1.4 kmh ENE 2.9 mph4.7 kmh 30.02 in1016.6 mb 0.00 in0.0 mm 0.00 in0.0 mm 0.01 in0.3 mm
03:16 AM 68.2°F20.1°C 63.5°F17.5°C 85% 2.0 mph NE3.2 kmh NE 4.0 mph6.4 kmh 30.02 in1016.6 mb 0.00 in0.0 mm 0.00 in0.0 mm 0.01 in0.3 mm
03:06 AM 68.4°F20.2°C 63.3°F17.4°C 84% 2.0 mph NNE3.2 kmh NNE 4.9 mph7.9 kmh 30.02 in1016.6 mb 0.00 in0.0 mm 0.00 in0.0 mm 0.01 in0.3 mm
02:56 AM 68.4°F20.2°C 63.3°F17.4°C 84% 2.9 mph NE4.7 kmh NE 8.1 mph13.0 kmh 30.02 in1016.6 mb 0.00 in0.0 mm 0.00 in0.0 mm 0.01 in0.3 mm
02:46 AM 68.4°F20.2°C 63.3°F17.4°C 84% 4.9 mph NE7.9 kmh NE 10.1 mph16.3 kmh 30.02 in1016.6 mb 0.00 in0.0 mm 0.00 in0.0 mm 0.01 in0.3 mm
02:36 AM 67.8°F19.9°C 63.5°F17.5°C 86% 2.0 mph NE3.2 kmh NE 6.9 mph11.1 kmh 30.02 in1016.6 mb 0.00 in0.0 mm 0.00 in0.0 mm 0.01 in0.3 mm
02:26 AM 67.6°F19.8°C 63.3°F17.4°C 86% 2.9 mph NE4.7 kmh NE 4.9 mph7.9 kmh 30.02 in1016.6 mb 0.00 in0.0 mm 0.00 in0.0 mm 0.01 in0.3 mm
02:16 AM 68.2°F20.1°C 63.5°F17.5°C 85% 2.9 mph NNW4.7 kmh NNW 8.1 mph13.0 kmh 30.02 in1016.6 mb 0.00 in0.0 mm 0.00 in0.0 mm 0.01 in0.3 mm
02:06 AM 68.2°F20.1°C 63.1°F17.3°C 84% 4.0 mph NNE6.4 kmh NNE 9.0 mph14.5 kmh 30.02 in1016.6 mb 0.00 in0.0 mm 0.00 in0.0 mm 0.01 in0.3 mm
01:56 AM 67.8°F19.9°C 63.5°F17.5°C 86% 2.9 mph NE4.7 kmh NE 7.0 mph11.3 kmh 30.02 in1016.6 mb 0.00 in0.0 mm 0.00 in0.0 mm 0.01 in0.3 mm
01:46 AM 68.2°F20.1°C 63.9°F17.7°C 86% 2.0 mph NE3.2 kmh NE 4.9 mph7.9 kmh 30.02 in1016.6 mb 0.00 in0.0 mm 0.00 in0.0 mm 0.01 in0.3 mm
01:36 AM 68.2°F20.1°C 63.5°F17.5°C 85% 4.9 mph NE7.9 kmh NE 10.1 mph16.3 kmh 30.02 in1016.6 mb 0.00 in0.0 mm 0.00 in0.0 mm 0.01 in0.3 mm
01:26 AM 67.8°F19.9°C 63.5°F17.5°C 86% 4.0 mph NE6.4 kmh NE 10.1 mph16.3 kmh 30.02 in1016.6 mb 0.00 in0.0 mm 0.00 in0.0 mm 0.01 in0.3 mm
01:16 AM 67.6°F19.8°C 63.3°F17.4°C 86% 4.0 mph NNE6.4 kmh NNE 8.9 mph14.3 kmh 30.02 in1016.6 mb 0.01 in0.3 mm 0.00 in0.0 mm 0.01 in0.3 mm
01:06 AM 67.6°F19.8°C 63.7°F17.6°C 87% 2.9 mph NNE4.7 kmh NNE 8.1 mph13.0 kmh 30.02 in1016.6 mb 0.01 in0.3 mm 0.00 in0.0 mm 0.01 in0.3 mm
12:56 AM 67.6°F19.8°C 63.7°F17.6°C 87% 2.0 mph NE3.2 kmh NE 8.1 mph13.0 kmh 30.02 in1016.6 mb 0.01 in0.3 mm 0.00 in0.0 mm 0.01 in0.3 mm
12:46 AM 68.0°F20.0°C 64.0°F17.8°C 87% 4.0 mph NE6.4 kmh NE 8.1 mph13.0 kmh 30.02 in1016.6 mb 0.01 in0.3 mm 0.00 in0.0 mm 0.01 in0.3 mm
12:36 AM 67.5°F19.7°C 63.9°F17.7°C 88% 2.9 mph NE4.7 kmh NE 8.1 mph13.0 kmh 30.02 in1016.6 mb 0.01 in0.3 mm 0.00 in0.0 mm 0.01 in0.3 mm
12:26 AM 68.0°F20.0°C 64.0°F17.8°C 87% 4.0 mph N6.4 kmh N 8.1 mph13.0 kmh 30.02 in1016.6 mb 0.01 in0.3 mm 0.06 in1.5 mm 0.01 in0.3 mm
12:16 AM 68.2°F20.1°C 63.9°F17.7°C 86% 4.0 mph NNE6.4 kmh NNE 8.9 mph14.3 kmh 30.03 in1016.9 mb 0.00 in0.0 mm 0.00 in0.0 mm 0.00 in0.0 mm
12:06 AM 68.2°F20.1°C 63.9°F17.7°C 86% 4.0 mph NE6.4 kmh NE 10.1 mph16.3 kmh 30.03 in1016.9 mb 0.00 in0.0 mm 0.00 in0.0 mm 0.00 in0.0 mm